CheckWX is a tool to help pilots better visualize weather data.  It is not intended as a substitute for an official pre-flight weather briefing.

19:03:54 UTC

HEMM METAR
Mersa Matruh Airport
Mersa Matruh, Egypt
Current

1 hour ago

HEMM 201800Z 06004KT CAVOK 19/12 Q1019 NOSIG
Observed
Nov-20 @ 18:00 UTC
Wind
  • 060° at 4 KTS
Visibility
10,000+ meters
Flight Rules
VFR
Cloud Levels
  • Clear skies
Temperature
19°C / 66°F
Dewpoint
12°C / 54°F
Humidity
64%
Altimeter
30.09" Hg
Pressure
1018.92 hPa
Previous

2 hours ago

HEMM 201700Z 06006KT CAVOK 20/12 Q1019 NOSIG
Observed
Nov-20 @ 17:00 UTC
Wind
  • 060° at 6 KTS
Visibility
10,000+ meters
Flight Rules
VFR
Cloud Levels
  • Clear skies
Temperature
20°C / 68°F
Dewpoint
12°C / 54°F
Humidity
60%
Altimeter
30.09" Hg
Pressure
1018.92 hPa
Previous

3 hours ago

HEMM 201600Z 06004KT CAVOK 20/12 Q1019 NOSIG
Observed
Nov-20 @ 16:00 UTC
Wind
  • 060° at 4 KTS
Visibility
10,000+ meters
Flight Rules
VFR
Cloud Levels
  • Clear skies
Temperature
20°C / 68°F
Dewpoint
12°C / 54°F
Humidity
60%
Altimeter
30.09" Hg
Pressure
1018.92 hPa